x

8419317 - Wells, Me (welm1) Weather Station

9:18 - Tue 26th May 2015 All times are EDT. -4 hours from GMT.

  • Wind
    7mph, 8mph gusts
  • Sea Temp 46°f
  • Ar Temp 60°f
  • Sea Pressure 1017.5mb
  • 8419317 - Wells, Me
  • 8419317 - Wells, Me

More Historic Weather Station data

Upgrade to MSW Pro to gain access to the past 30 days of data for over 8000 Wavebouys and Weather Stations around the globe.

Join Pro

Comparision Forecast

View Surf forecast
   
Ter 05/26 9:18 7 8 mph 1017.5mb 46f 60f
9:12 3 5 mph 1017.3mb 46f 61f
9:06 3 7 mph 1017.3mb 46f 63f
9:00 6 7 mph 1017.2mb 46f 61f
8:54 5 6 mph 1017.1mb 45f 61f
8:48 1 2 mph 1017mb 45f 62f
8:42 3 5 mph 1017mb 45f 64f
8:36 2 6 mph 1017mb 45f 62f
8:30 7 8 mph 1017mb 45f 60f
8:24 5 8 mph 1017mb 45f 59f
8:18 7 10 mph 1016.9mb 45f 58f
8:12 7 10 mph 1016.9mb 45f 61f
8:06 10 11 mph 1016.9mb 45f 60f
8:00 8 10 mph 1016.9mb 45f 61f
7:54 7 10 mph 1016.8mb 45f 64f
7:48 9 11 mph 1016.8mb 45f 62f
7:42 11 15 mph 1016.8mb 45f 65f
7:36 10 15 mph 1016.6mb 45f -
7:30 9 16 mph 1016.7mb 45f -
7:24 6 9 mph 1016.7mb 45f 66f
7:18 9 13 mph 1016.8mb 45f 64f
7:12 11 14 mph 1016.8mb 45f 64f
7:06 11 16 mph 1016.7mb 45f 63f
7:00 15 18 mph 1016.8mb 45f 60f
6:54 10 11 mph 1016.7mb 45f 62f
6:48 9 11 mph 1016.5mb 45f 65f
6:42 8 10 mph 1016.5mb 44f 65f
6:36 6 8 mph 1016.5mb 44f 64f
6:30 6 8 mph 1016.5mb 44f 63f
6:24 7 11 mph 1016.5mb 44f 63f
6:18 11 16 mph 1016.5mb 44f 61f
6:12 14 20 mph 1016.5mb 44f 60f
6:06 18 21 mph 1016.6mb 44f 61f
6:00 17 20 mph 1016.5mb 44f 64f
5:54 16 17 mph 1016.4mb 44f 64f
5:48 14 18 mph 1016.3mb 44f 70f
5:42 17 21 mph 1016.2mb 44f 67f
5:36 14 15 mph 1016.2mb 45f 71f
5:30 13 15 mph 1016.1mb 45f 70f
5:24 11 15 mph 1016.2mb 45f 66f
5:18 14 17 mph 1016.2mb 45f 65f
5:12 16 18 mph 1016.3mb 45f 64f
5:06 16 20 mph 1016.3mb 45f 61f
5:00 17 22 mph 1016.4mb 45f 61f
4:54 18 22 mph 1016.4mb 45f 62f
4:48 16 20 mph 1016.4mb 45f 60f
4:42 16 22 mph 1016.4mb 45f 61f
4:36 14 15 mph 1016.3mb 45f 61f
4:30 11 16 mph 1016.2mb 45f 64f
4:24 10 17 mph 1016.2mb 45f 65f
4:18 14 15 mph 1016.2mb 46f 64f
4:12 13 16 mph 1016.2mb 46f 62f
4:06 16 18 mph 1016.4mb 46f 60f
4:00 14 16 mph 1016.4mb 46f 60f
3:54 14 16 mph 1016.4mb 47f 61f
3:48 14 20 mph 1016.4mb 47f 64f
3:42 15 17 mph 1016.4mb 47f 66f
3:36 13 18 mph 1016.5mb 47f 67f
3:30 14 17 mph 1016.5mb 47f 71f
3:24 10 17 mph 1016.3mb 47f -
3:18 11 22 mph 1016.4mb 47f -
3:12 10 22 mph 1016.4mb 48f -
3:06 14 20 mph 1016.5mb 48f -
3:00 10 16 mph 1016.5mb 48f -
2:54 7 17 mph 1016.5mb 48f -
2:48 13 20 mph 1016.5mb 48f -
2:42 11 17 mph 1016.6mb 48f -
2:36 15 23 mph 1016.7mb 48f -
2:30 9 18 mph 1016.7mb 48f -
2:24 13 20 mph 1016.7mb 48f -
2:18 10 17 mph 1016.7mb 48f -
2:12 14 21 mph 1016.7mb 48f -
2:06 14 22 mph 1016.7mb 48f -
2:00 5 14 mph 1016.8mb 48f -
1:30 6 21 mph 1017mb 47f 70f
1:24 15 20 mph 1017mb 47f -
1:18 13 25 mph 1016.9mb 47f -
1:12 10 14 mph 1017.1mb 47f -
1:06 13 22 mph 1017.2mb 47f -
1:00 11 21 mph 1017.3mb 47f -
12:54 3 9 mph 1017.4mb 47f 66f
12:48 9 15 mph 1017.5mb 46f 65f
12:42 15 20 mph 1017.4mb 46f 71f
12:36 6 11 mph 1017.7mb 46f -
12:30 10 14 mph 1017.7mb 46f -
12:24 8 13 mph 1017.7mb 46f 77f
12:18 7 13 mph 1017.7mb 46f 70f
12:12 11 14 mph 1017.8mb 46f 68f
12:06 11 15 mph 1017.9mb 46f 65f
12:00 10 14 mph 1018.1mb 46f 64f
11:54 10 11 mph 1018.3mb 46f 65f
11:48 9 11 mph 1018.3mb 46f 63f
11:42 10 13 mph 1018.4mb 46f 62f
11:36 7 10 mph 1018.4mb 46f 64f
11:30 10 14 mph 1018.3mb 46f 64f
11:24 10 11 mph 1018.3mb 46f 64f
11:18 10 13 mph 1018.3mb 47f 63f
11:12 8 10 mph 1018.4mb 47f 63f
11:06 7 9 mph 1018.5mb 47f 62f
11:00 7 11 mph 1018.5mb 47f 60f
10:54 9 11 mph 1018.5mb 47f 58f
10:48 9 14 mph 1018.3mb 46f 58f
10:42 13 14 mph 1018.1mb 46f 57f
10:36 11 13 mph 1018.1mb 46f 59f
10:30 7 11 mph 1018.2mb 46f 60f
10:24 7 9 mph 1018.1mb 46f 62f
10:18 7 9 mph 1018.1mb 46f 62f
10:12 8 9 mph 1018.3mb 46f 60f
10:06 6 8 mph 1018.3mb 45f 60f
10:00 6 10 mph 1018.3mb 45f 60f
9:54 9 10 mph 1018.3mb 45f 57f
9:48 9 10 mph 1018.3mb 45f 56f
9:42 8 11 mph 1018.3mb 45f 55f
9:36 9 10 mph 1018.4mb 45f 55f
9:30 6 10 mph 1018.4mb 45f 56f
9:24 9 14 mph 1018.3mb 45f 55f
9:18 8 11 mph 1018.2mb 44f 57f
9:12 10 13 mph 1018.3mb 44f 57f
9:06 9 13 mph 1018.4mb 44f 57f
9:00 9 14 mph 1018.4mb 44f 57f
8:54 10 13 mph 1018.3mb 44f 58f
8:48 8 10 mph 1018.3mb 44f 58f
8:42 8 11 mph 1018.4mb 44f 57f
8:36 7 8 mph 1018.4mb 44f 56f
8:30 5 6 mph 1018.4mb 44f 55f
8:24 5 8 mph 1018.3mb 44f 53f
8:18 5 7 mph 1018.2mb 43f 54f
8:12 3 6 mph 1018.3mb 43f 53f
8:06 7 11 mph 1018.4mb 43f 53f
8:00 11 14 mph 1018.4mb 43f 53f
7:54 11 14 mph 1018.5mb 43f 53f
7:48 13 14 mph 1018.5mb 43f 53f
7:42 10 11 mph 1018.5mb 43f 52f
7:36 11 14 mph 1018.6mb 43f 52f
7:30 11 13 mph 1018.5mb 43f 53f
7:24 9 10 mph 1018.5mb 43f 52f
7:18 7 9 mph 1018.4mb 43f 52f
7:12 8 11 mph 1018.3mb 43f 53f
7:06 9 13 mph 1018.2mb 43f 53f
7:00 9 10 mph 1018.2mb 43f 54f
6:54 8 10 mph 1018.2mb 43f 53f
6:48 6 7 mph 1018.1mb 42f 53f
6:42 5 7 mph 1018.1mb 42f 53f
6:36 5 6 mph 1018mb 42f 53f
6:30 5 8 mph 1018mb 42f 52f
6:24 9 10 mph 1018.1mb 42f 52f
6:18 9
mph
1018mb 42f 52f
6:12 7 9 mph 1017.9mb 42f 52f
6:06 6 7 mph 1017.8mb 42f 52f
6:00 6 8 mph 1017.8mb 42f 52f
5:54 6 8 mph 1017.7mb 43f 53f
5:48 8 11 mph 1017.7mb 43f 53f
5:42 8 9 mph 1017.7mb 43f 53f
5:36 9 10 mph 1017.5mb 43f 53f
5:30 6 7 mph 1017.6mb 43f 53f
5:24 6 8 mph 1017.5mb 43f 53f
5:18 7 8 mph 1017.6mb 43f 54f
5:12 7 8 mph 1017.6mb 43f 54f
5:06 6 7 mph 1017.6mb 43f 53f
5:00  -  2 mph 1017.6mb 43f 55f
4:54 1 2 mph 1017.7mb 43f 55f
4:48 2 3 mph 1017.6mb 43f 54f
4:42 3 6 mph 1017.6mb 43f 54f
4:36 5 7 mph 1017.7mb 43f 53f
4:30 2 3 mph 1017.7mb 43f 54f
4:24 1
mph
1017.7mb 43f 53f
4:18  -  1 mph 1017.7mb 43f 53f
4:12  -  3 mph 1017.8mb 43f 53f
4:06 2 3 mph 1017.7mb 43f 54f
4:00 2 5 mph 1017.7mb 43f 54f
3:54 3 5 mph 1017.6mb 43f 54f
3:48  -  1 mph 1017.6mb 43f 54f
3:42 1 3 mph 1017.6mb 43f 53f
3:36 3 5 mph 1017.6mb 43f 53f
3:30 5 7 mph 1017.7mb 43f 53f
3:24 8 9 mph 1017.7mb 44f 53f
3:18 7 9 mph 1017.7mb 44f 53f
3:12 3 5 mph 1017.8mb 45f 54f
3:06  -  5 mph 1017.8mb 45f 54f
3:00 6 8 mph 1017.8mb 46f 54f
2:54 7
mph
1017.8mb 47f 54f
2:48 5 6 mph - 48f 54f
2:42 3 6 mph - 49f 54f
2:36 5 6 mph - 49f 54f
2:30 3 5 mph 1017.9mb 49f 53f
2:24 2 3 mph 1018mb 49f 53f
2:18 2 5 mph 1018mb 49f 53f
2:12 3 5 mph 1017.9mb 49f 53f
2:06 5 6 mph 1018mb 49f 53f
2:00 5 6 mph 1018mb 48f 53f
1:54 5 6 mph 1018.1mb 48f 53f
1:48 5 6 mph 1018.2mb 48f 54f
1:42 1 3 mph 1018.2mb 48f 54f
1:36  -  1 mph 1018.2mb 48f 54f
1:30  -  1 mph 1018.2mb 48f 53f
1:24 1 3 mph 1018.1mb 48f 53f
1:18 1 2 mph 1018.2mb 48f 53f
1:12 1 2 mph 1018.2mb 48f 53f
1:06  -  2 mph 1018.2mb 48f 53f
1:00 2 5 mph 1018.2mb 48f 53f
12:54 3 6 mph 1018.2mb 48f 53f
12:48 5 7 mph 1018.2mb 48f 53f
12:42 8 9 mph 1018.3mb 48f 53f
12:36 8 9 mph 1018.3mb 48f 53f
12:30 8 10 mph 1018.5mb 48f 53f
12:24 10 11 mph 1018.5mb 48f 54f
12:18 9 10 mph 1018.6mb 48f 54f
12:12 7 8 mph 1018.6mb 48f 54f
12:06 8 9 mph 1018.7mb 48f 55f
12:00 9 10 mph 1018.8mb 48f 55f
Seg 05/25 11:54 9 10 mph 1018.8mb 48f 55f
11:48 9 10 mph 1018.9mb 48f 56f
11:42 8 9 mph 1018.9mb 48f 56f
11:36 7 8 mph 1018.9mb 48f 55f
11:30 7 9 mph 1019mb 48f 55f
11:24 8 10 mph 1019mb 48f 55f
11:18 9 11 mph 1019mb 48f 55f
11:12 11 14 mph 1019mb 48f 55f
11:06 14 16 mph 1019.1mb 48f 55f
11:00 14 17 mph 1019.1mb 48f 55f
10:54 14 16 mph 1019mb 48f 56f
10:48 14 16 mph 1019mb 48f 56f
10:42 14 16 mph 1019mb 48f 56f
10:36 15 16 mph 1019mb 47f 56f
10:30 14 16 mph 1019.1mb 47f 56f
10:24 14 16 mph 1019.1mb 47f 57f
10:18 15 16 mph 1019.2mb 47f 57f
10:12 14 16 mph 1019.2mb 47f 57f
10:06 13 15 mph 1019.2mb 47f 57f
10:00 13 14 mph 1019.2mb 47f 58f
9:54 11 13 mph 1019.1mb 46f 58f
9:48 11 13 mph 1019.2mb 46f 58f
9:42 10 13 mph 1019.2mb 46f 59f
9:36 10 13 mph 1019.2mb 46f 58f
9:30 10 11 mph 1019.2mb 46f 59f
9:24 10 13 mph 1019.2mb 46f 59f
9:18 11 13 mph 1019.2mb 46f 58f
9:12 13 14 mph 1019.3mb 46f 58f
9:06 13 15 mph 1019.3mb 46f 58f
9:00 11 13 mph 1019.2mb 45f 58f
8:54 11 14 mph 1019.1mb 45f 58f
8:48 13 14 mph 1019.1mb 45f 57f
8:42 14 15 mph 1019.1mb 45f 58f
8:36 14 15 mph 1019.1mb 45f 57f
8:30 14 15 mph 1019.1mb 45f 57f
8:24 14 16 mph 1019.1mb 44f 57f
8:18 14 16 mph 1019.1mb 44f 56f
8:12 15 16 mph 1019.2mb 44f 57f
8:06 15 16 mph 1019.3mb 44f 57f
8:00 14 16 mph 1019.3mb 44f 56f
7:54 15 18 mph 1019.3mb 44f 56f
7:48 16 20 mph 1019.3mb 44f 57f
7:42 18 21 mph 1019.4mb 44f 58f
7:36 17 21 mph 1019.5mb 44f 58f
7:30 13 15 mph 1019.4mb 44f 57f
7:24 11 13 mph 1019.5mb 43f 57f
7:18 10 13 mph 1019.5mb 43f 57f
7:12 11 14 mph 1019.5mb 43f 58f
7:06 13 15 mph 1019.7mb 43f 58f
7:00 13 16 mph 1019.8mb 43f 58f
6:54 9 10 mph 1019.7mb 43f 58f
6:48 9 10 mph 1019.8mb 43f 58f
6:42 8 9 mph 1019.8mb 43f 58f
6:36 7 8 mph 1019.8mb 43f 59f
6:30 7 8 mph 1019.8mb 43f 59f
6:24 7 9 mph 1019.8mb 43f 59f
6:18 8 9 mph 1019.8mb 43f -
6:12 8 9 mph 1019.8mb 43f -
6:06 8 10 mph 1019.9mb 43f -
6:00 10 11 mph 1019.9mb 43f -
5:54 9 13 mph 1020mb 43f -
5:48 10 11 mph 1020mb 43f -
5:42 10 14 mph 1019.9mb 43f -
5:36 13 14 mph 1020mb 43f -
5:30 14 15 mph 1020mb 43f -
5:24 11 14 mph 1020mb 43f -
5:18 13 14 mph 1020.1mb 43f -
5:12 11 16 mph 1020.1mb 43f -
5:06 15 17 mph 1020.1mb 43f -
5:00 13 16 mph 1020.2mb 43f -
4:54 3 7 mph 1020mb 43f -
4:48 8 10 mph 1020.1mb 43f -
4:42 8 13 mph 1020.1mb 43f -
4:36 11 13 mph 1020.1mb 43f -
4:30 11 14 mph 1020.1mb 43f -
4:24 14 17 mph 1020.2mb 43f 74f
4:18 11 16 mph 1020.1mb 43f 74f
4:12 13 18 mph 1020.2mb 43f 78f
4:06 13 21 mph 1020.2mb 43f 79f
4:00 13 18 mph 1020.3mb 43f 79f
3:54 8 16 mph 1020.3mb 43f 80f
3:48 10 21 mph 1020.3mb 43f 80f
3:42 15 28 mph 1020.3mb 43f 80f
3:36 11 17 mph 1020.3mb 43f 80f
3:30 11 21 mph 1020.4mb 44f 80f
3:24 10 16 mph 1020.4mb 44f 81f
3:18 8 15 mph 1020.4mb 44f 81f
3:12 10 15 mph 1020.5mb 44f 80f
3:06 10 21 mph 1020.5mb 44f 81f
3:00 8 17 mph 1020.5mb 45f 81f
2:54 15 20 mph 1020.6mb 46f 80f
2:48 10 21 mph 1020.6mb 46f 80f
2:42 11 17 mph 1020.6mb 46f 80f
2:36 13 16 mph 1020.7mb 46f 80f
2:30 9 16 mph 1020.6mb 46f 80f
2:24 11 18 mph 1020.6mb 46f 80f
2:18 10 18 mph 1020.6mb 46f 80f
2:12 11 21 mph 1020.5mb 46f 81f
2:06 10 17 mph 1020.6mb 46f 81f
2:00 11 16 mph 1020.6mb 46f 81f
1:54 7 15 mph 1020.6mb 46f 81f
1:48 7 15 mph 1020.6mb 46f 81f
1:42 8 11 mph 1020.6mb 46f 81f
1:36 8 13 mph 1020.7mb 46f 80f
1:30 10 14 mph 1020.8mb 46f 80f
1:24 10 17 mph 1021mb 46f 80f
1:18 8 14 mph 1021.1mb 46f 81f
1:12 11 16 mph 1021.1mb 46f 80f
1:06 11 20 mph 1021.1mb 45f 80f
1:00 13 20 mph 1021.2mb 45f 80f
12:54 11 18 mph 1021.2mb 45f 80f
12:48 11 17 mph 1021.2mb 45f 81f
12:42 13 17 mph 1021.1mb 45f 80f
12:36 13 22 mph 1021.2mb 44f 80f
12:30 10 16 mph 1021.3mb 44f 81f
12:24 10 16 mph 1021.3mb 44f 80f
12:18 9 21 mph 1021.3mb 44f 80f
12:12 15 21 mph 1021.3mb 44f 80f
12:06 10 17 mph 1021.3mb 44f 81f
12:00 10 17 mph 1021.3mb 44f 80f
11:54 9 15 mph 1021.4mb 44f 80f
11:48 8 15 mph 1021.4mb 44f 80f
11:42 6 14 mph 1021.5mb 44f 80f
11:36 11 22 mph 1021.5mb 44f 79f
11:30 9 16 mph 1021.6mb 44f 79f
11:24 13 18 mph 1021.4mb 44f 79f
11:18 9 18 mph 1021.5mb 44f 79f
11:12 11 18 mph 1021.4mb 44f 78f
11:06 10 20 mph 1021.5mb 44f 78f
11:00 10 18 mph 1021.5mb 44f 78f
10:54 8 15 mph 1021.6mb 44f 78f
10:48 11 16 mph 1021.5mb 44f 77f
10:42 7 11 mph 1021.6mb 44f 77f
10:36 8 15 mph 1021.6mb 44f 77f
10:30 8 15 mph 1021.6mb 43f 76f
10:24 8 14 mph 1021.5mb 43f 76f
10:18 9 14 mph 1021.5mb 44f 75f
10:12 8 16 mph 1021.5mb 44f 75f
10:06 7 13 mph 1021.5mb 44f 76f
10:00 7 13 mph 1021.5mb 44f 74f
9:54 7 14 mph 1021.6mb 43f 73f
9:48 9 14 mph 1021.6mb 43f 73f
9:42 8 14 mph 1021.6mb 44f 73f
9:36 9 14 mph 1021.6mb 44f 73f
9:30 6 9 mph 1021.6mb 44f 73f
9:24 7 11 mph 1021.7mb 43f 72f
9:18 7 13 mph 1021.7mb 43f 72f
9:12 8 11 mph 1021.7mb 43f 72f
9:06 7 10 mph 1021.7mb 43f 72f
9:00 5 10 mph 1021.7mb 43f 71f
8:54 5 10 mph 1021.8mb 43f 71f
8:48 6 9 mph 1021.9mb 43f 66f
8:42 3 6 mph 1021.8mb 43f 65f
8:36 6
mph
1021.8mb 43f 65f
8:30 2 6 mph 1021.8mb 43f 65f
8:24 1 5 mph 1021.8mb 43f 64f
8:18 2 3 mph 1021.9mb 43f 63f
8:12 1 3 mph 1021.9mb 42f 62f
8:06 3 6 mph 1021.9mb 42f 61f
8:00 3 6 mph 1021.9mb 42f 66f
7:54 2 5 mph 1021.9mb 42f 65f
7:48 2 6 mph 1021.9mb 42f 65f
7:42 2 6 mph 1021.9mb 42f 65f
7:36 3 8 mph 1021.9mb 42f 64f
7:30 2 7 mph 1021.8mb 42f 62f
7:24 3 5 mph 1021.8mb 42f 60f
7:18 2 3 mph 1021.8mb 42f 58f
7:12 2 3 mph 1021.7mb 42f 57f
7:06 3 5 mph 1021.7mb 42f 56f
7:00 2
mph
1021.7mb 42f 55f
6:54  -  1 mph 1021.7mb 42f 54f
6:48  -  1 mph 1021.7mb 42f 54f
6:42  -  2 mph 1021.6mb 42f 53f
6:36 1 2 mph 1021.6mb 42f 53f
6:30 2
mph
1021.6mb 42f 52f
6:24 2 3 mph 1021.6mb 42f 52f
6:18 2 3 mph 1021.7mb 42f 52f
6:12 2
mph
1021.6mb 42f 51f
6:06 1 2 mph 1021.6mb 42f 51f
6:00 1
mph
1021.5mb 42f 51f
5:54  -  1 mph 1021.5mb 41f 51f
5:48  -  1 mph 1021.4mb 41f 51f
5:42 1 3 mph 1021.4mb 41f 51f
5:36 3
mph
1021.4mb 41f 51f
5:30 3
mph
1021.3mb 41f 50f
5:24 2 3 mph 1021.2mb 41f 51f
5:18 3
mph
1021.1mb 41f 53f
5:12 2 3 mph 1021.1mb 41f 53f
5:06 2 3 mph 1021.1mb 41f 55f
5:00  -  1 mph 1021mb 41f 55f
4:54 1 2 mph 1021mb 41f 55f
4:48  -  1 mph 1020.9mb 41f 55f
4:42  -  2 mph 1020.8mb 41f 56f
4:36 2 3 mph 1020.7mb 41f 56f
4:30 2 5 mph 1020.7mb 41f 57f
4:24 5 6 mph 1020.8mb 42f 57f
4:18 6 9 mph 1020.8mb 42f 58f
4:12 8 9 mph 1020.8mb 42f 57f
4:06 7 8 mph 1020.7mb 42f 56f
4:00 5 6 mph 1020.7mb 42f 57f
3:54 1 2 mph 1020.6mb 42f 57f
3:48  -  3 mph 1020.6mb 42f 58f
3:42 2 3 mph 1020.6mb 42f 59f
3:36 1 2 mph 1020.5mb 42f 60f
3:30 2 3 mph 1020.5mb 42f 59f
3:24 3 5 mph 1020.6mb 42f 60f
3:18 3 6 mph 1020.6mb 42f 60f
3:12 6 7 mph 1020.7mb 42f 59f
3:06 6 8 mph 1020.7mb 42f 60f
3:00 8
mph
1020.7mb 42f 60f
2:54 3 9 mph 1020.7mb 42f 64f
2:48 6 9 mph - 42f 64f
2:42 6 10 mph - 42f 64f
2:36 7 10 mph - 42f 64f
2:30 6 9 mph 1020.7mb 42f 64f
2:24 6 11 mph 1020.7mb 42f 64f
2:18 7 13 mph 1020.7mb 42f 64f
2:12 8 13 mph 1020.8mb 42f 65f
2:06 8 13 mph 1020.7mb 43f 65f
2:00 8 14 mph 1020.7mb 44f 65f
1:54 9 15 mph 1020.8mb 45f 65f
1:48 10 16 mph 1020.7mb 46f 66f
1:42 11 16 mph 1020.7mb 46f 66f
1:36 10 15 mph 1020.7mb 46f 65f
1:30 10 15 mph 1020.8mb 47f 66f
1:24 9 14 mph 1020.8mb 47f 66f
1:18 8 14 mph 1020.8mb 47f 66f
1:12 9 14 mph 1020.8mb 47f 66f
1:06 9 14 mph 1020.8mb 47f 67f
1:00 7 13 mph 1020.9mb 47f 67f
12:54 7 14 mph 1020.8mb 47f 67f
12:48 8 13 mph 1020.9mb 47f 67f
12:42 9 13 mph 1021mb 47f 67f
12:36 8 14 mph 1021.1mb 47f 67f
12:30 10 16 mph 1021mb 47f 68f
12:24 7 13 mph 1021mb 47f 68f
12:18 8 13 mph 1021mb 47f 68f
12:12 8 17 mph 1021.1mb 47f 68f
12:06 7 13 mph 1021.1mb 46f 68f
12:00 8 15 mph 1021.1mb 46f 68f
Dom 05/24 11:54 7 14 mph 1021mb 46f 68f
11:48 8 13 mph 1020.9mb 46f 68f
11:42 8 14 mph 1020.9mb 46f 68f
11:36 7 14 mph 1020.7mb 46f 68f
11:30 9 15 mph 1020.7mb 46f 68f
11:24 9 14 mph 1020.5mb 46f 68f
11:18 8 11 mph 1020.4mb 46f 68f
11:12 9 14 mph 1020.4mb 46f 68f
11:06 7 10 mph 1020.3mb 46f 69f
11:00 6 9 mph 1020.2mb 46f 68f
10:54 6 9 mph 1020.2mb 46f 69f
10:48 6 10 mph 1020.3mb 46f 69f
10:42 7 10 mph 1020.3mb 46f 69f
10:36 7 9 mph 1020.2mb 46f 69f
10:30 6 8 mph 1020.2mb 46f 69f
10:24 6 8 mph 1020.2mb 46f 69f
10:18 5 8 mph 1020.2mb 46f 69f
10:12 6 7 mph 1020.2mb 46f 69f
10:06 6 8 mph 1020.1mb 46f 69f
10:00 5 7 mph 1020.1mb 46f 69f
9:54 5 8 mph 1020mb 46f 70f
9:48 6 8 mph 1019.9mb 45f 70f
9:42 6 8 mph 1019.8mb 45f 70f
9:36 6 8 mph 1019.8mb 45f 70f
9:30 6 10 mph 1019.8mb 45f 70f
9:24 7 9 mph 1019.7mb 45f 70f
9:18 6 9 mph 1019.6mb 45f 70f
9:12 5 8 mph 1019.5mb 44f 70f
9:06 5 7 mph 1019.4mb 44f 71f
9:00 6 7 mph 1019.3mb 44f 71f
8:54 5 7 mph 1019.2mb 44f 71f
8:48 5 7 mph 1019.1mb 44f 71f
8:42 5 7 mph 1019.1mb 44f 72f
8:36 5 6 mph 1019mb 43f 72f
8:30 5 6 mph 1018.9mb 43f 72f
8:24 3 6 mph 1018.9mb 44f 73f
8:18 5 6 mph 1018.9mb 44f 73f
8:12 3 5 mph 1018.9mb 43f 74f
8:06 3 5 mph 1018.8mb 43f 75f
8:00 3
mph
1018.8mb 43f 75f
7:54 3 5 mph 1018.7mb 44f 76f
7:48 3 5 mph 1018.6mb 44f 76f
7:42 3 5 mph 1018.5mb 44f 77f
7:36 2 5 mph 1018.5mb 43f 77f
7:30 3 6 mph 1018.4mb 43f 78f
7:24 3 6 mph 1018.4mb 43f 78f
7:18 5 8 mph 1018.3mb 43f 79f
7:12 7 11 mph 1018.3mb 43f 79f
7:06 6 10 mph 1018.2mb 43f 79f
7:00 7 14 mph 1018.2mb 43f 80f
6:54 8 14 mph 1018.1mb 43f 80f
6:48 7 11 mph 1018mb 43f 80f
6:42 7 11 mph 1017.8mb 43f 80f
6:36 6 10 mph 1017.8mb 42f 80f
6:30 10 13 mph 1017.9mb 42f 81f
6:24 7 13 mph 1017.9mb 42f 81f
6:18 9 14 mph 1017.9mb 42f 81f
6:12 8 13 mph 1018mb 42f 80f
6:06 10 15 mph 1018.1mb 42f 80f
6:00 8 14 mph 1018mb 42f 80f
5:54 11 16 mph 1018mb 42f 80f
5:48 6 14 mph 1018mb 42f 80f
5:42 7 17 mph 1018mb 42f 81f
5:36 11 16 mph 1018.1mb 42f 81f
5:30 13 22 mph 1018.1mb 42f 80f
5:24 11 17 mph 1018.2mb 42f 81f
5:18 10 16 mph 1018.1mb 42f 81f
5:12 7 14 mph 1018.1mb 42f 81f
5:06 8 18 mph 1018.2mb 42f 81f
5:00 13 20 mph 1018.2mb 42f 80f
4:54 10 17 mph 1018.1mb 42f 81f
4:48 10 20 mph 1018.1mb 42f 80f
4:42 11 20 mph 1018.2mb 42f 81f
4:36 13 23 mph 1018.3mb 42f 81f
4:30 14 23 mph 1018.4mb 42f 80f
4:24 13 20 mph 1018.3mb 42f 80f
4:18 15 21 mph 1018.4mb 42f 81f
4:12 10 20 mph 1018.4mb 42f 81f
4:06 11 24 mph 1018.5mb 42f 80f
4:00 14 23 mph 1018.5mb 42f 81f
3:54 14 22 mph 1018.5mb 42f 80f
3:48 10 21 mph 1018.6mb 42f 80f
3:42 11 21 mph 1018.7mb 42f 80f
3:36 11 24 mph 1018.7mb 42f 80f
3:30 11 22 mph 1018.7mb 42f 80f
3:24 13 20 mph 1018.7mb 42f 80f
3:18 16 25 mph 1018.6mb 42f 79f
3:12 11 22 mph 1018.8mb 42f 81f
3:06 14 24 mph 1018.8mb 42f 80f
3:00 15 23 mph 1018.8mb 42f 80f
2:54 17 23 mph 1018.9mb 42f 80f
2:48 15 22 mph 1018.8mb 42f 80f
2:42 10 21 mph 1019mb 42f 80f
2:36 13 20 mph 1019mb 42f 79f
2:30 15 26 mph 1019.1mb 43f 79f
2:24 11 20 mph 1019.1mb 43f 80f
2:18 11 22 mph 1019.2mb 43f 79f
2:12 11 21 mph 1019.2mb 44f 79f
2:06 14 22 mph 1019.3mb 44f 78f
2:00 10 17 mph 1019.3mb 44f 78f
1:54 13 22 mph 1019.4mb 44f 78f
1:48 13 18 mph 1019.4mb 44f 78f
1:42 11 22 mph 1019.4mb 44f 78f
1:36 11 20 mph 1019.5mb 44f 78f
1:30 13 21 mph 1019.5mb 44f 79f
1:24 11 20 mph 1019.5mb 44f 78f
1:18 10 18 mph 1019.6mb 44f 78f
1:12 15 22 mph 1019.5mb 44f 77f
1:06 16 25 mph 1019.4mb 44f 78f
1:00 11 18 mph 1019.5mb 44f 79f
12:54 16 23 mph 1019.7mb 43f 78f
12:48 11 17 mph 1019.8mb 43f 78f
12:42 11 20 mph 1019.8mb 43f 78f
12:36 14 23 mph 1019.9mb 43f 77f
12:30 10 17 mph 1019.9mb 43f 77f
12:24 9 18 mph 1019.9mb 43f 77f
12:18 13 20 mph 1020mb 43f 76f
12:12 8 14 mph 1020.1mb 43f 76f
12:06 11 18 mph 1020.2mb 43f 76f
12:00 8 17 mph 1020.3mb 43f 76f
11:54 11 18 mph 1020.3mb 43f 75f
11:48 9 15 mph 1020.3mb 43f 75f
11:42 10 20 mph 1020.4mb 43f 74f
11:36 13 17 mph 1020.4mb 43f 74f
11:30 9 16 mph 1020.6mb 43f 74f
11:24 10 16 mph 1020.6mb 43f 74f
11:18 11 17 mph 1020.7mb 43f 73f
11:12 10 18 mph 1020.8mb 43f 73f
11:06 8 15 mph 1020.8mb 43f 73f
11:00 11 16 mph 1020.8mb 43f 72f
10:54 9 18 mph 1020.8mb 43f 72f
10:48 11 17 mph 1020.9mb 43f 72f
10:42 10 18 mph 1021mb 43f 71f
10:36 9 14 mph 1021.1mb 43f 71f
10:30 11 17 mph 1021.1mb 43f 70f
10:24 14 18 mph 1021.1mb 43f 69f
10:18 14 18 mph 1021.1mb 42f 70f
10:12 10 22 mph 1021.2mb 42f 69f
10:06 14 20 mph 1021.2mb 42f 69f
10:00 11 18 mph 1021.1mb 42f 69f
9:54 11 20 mph 1021.1mb 42f 68f
9:48 11 20 mph 1021.3mb 42f 67f
9:42 13 20 mph 1021.3mb 42f 67f
9:36 13 18 mph 1021.4mb 42f 66f
9:30 13 17 mph 1021.5mb 42f 65f
9:24 9 16 mph 1021.5mb 42f 65f
9:18 8 13 mph 1021.5mb 42f 64f
9:12 7 15 mph 1021.7mb 42f 63f
9:06 9 14 mph 1021.8mb 42f 62f
9:00 6 11 mph 1021.8mb 42f 62f
8:54 7 13 mph 1021.8mb 42f 61f
8:48 3 7 mph 1022mb 42f 60f
8:42 6 8 mph 1021.9mb 42f 59f
8:36 1 6 mph 1021.9mb 42f 59f
8:30 6 11 mph 1021.7mb 42f 59f
8:24 6 14 mph 1021.6mb 42f 59f
8:18 5 11 mph 1021.5mb 42f 59f
8:12 7 10 mph 1021.5mb 42f 58f
8:06 5 11 mph 1021.5mb 42f 57f
8:00 6 13 mph 1021.6mb 42f 56f
7:54 7 10 mph 1021.6mb 42f 55f
7:48 9 14 mph 1021.6mb 42f 55f
7:42 9 14 mph 1021.6mb 42f 55f
7:36 9 14 mph 1021.5mb 42f 55f
7:30 9 15 mph 1021.6mb 42f 54f
7:24 10 16 mph 1021.6mb 42f 53f
7:18 9 14 mph 1021.6mb 42f 53f
7:12 10 15 mph 1021.6mb 42f 53f
7:06 9 15 mph 1021.7mb 41f 53f
7:00 11 17 mph 1021.7mb 41f 53f
6:54 10 16 mph 1021.7mb 41f 52f
6:48 8 14 mph 1021.8mb 41f 53f
6:42 8 13 mph 1021.7mb 41f 53f
6:36 8 13 mph 1021.6mb 41f 52f
6:30 9 15 mph 1021.6mb 41f 51f
6:24 9 14 mph 1021.6mb 41f 51f
6:18 7 13 mph 1021.6mb 41f 51f
6:12 7 13 mph 1021.6mb 41f 51f
6:06 9 15 mph 1021.5mb 41f 51f
6:00 11 15 mph 1021.5mb 41f 51f
5:54 10 17 mph 1021.5mb 41f 51f
5:48 11 20 mph 1021.4mb 41f 51f
5:42 14 21 mph 1021.4mb 41f 51f
5:36 14 20 mph 1021.3mb 41f 51f
5:30 11 16 mph 1021.4mb 41f 51f
5:24 9 16 mph 1021.4mb 41f 51f
5:18 7 14 mph 1021.5mb 41f 51f
5:12 8 16 mph 1021.4mb 41f 51f
5:06 8 14 mph 1021.3mb 41f 51f
5:00 7 14 mph 1021.4mb 41f 51f
4:54 7 14 mph 1021.4mb 41f 51f
4:48 8 14 mph 1021.5mb 41f 51f
4:42 9 13 mph 1021.5mb 41f 52f
4:36 5 11 mph 1021.5mb 41f 52f
4:30 7 11 mph 1021.6mb 41f 52f
4:24 5 9 mph 1021.6mb 42f 52f
4:18 5 9 mph 1021.6mb 41f 52f
4:12 7 11 mph 1021.7mb 41f 52f
4:06 5 10 mph 1021.7mb 41f 51f
4:00 7 9 mph 1021.7mb 41f 51f
3:54 5 7 mph 1021.8mb 41f 51f
3:48 5 8 mph 1021.8mb 41f 51f
3:42 5 8 mph 1021.9mb 41f 51f
3:36 6 8 mph 1022mb 41f 51f
3:30 6 8 mph 1022.1mb 41f 51f
3:24 5 6 mph 1022.2mb 41f 51f
3:18 5 11 mph 1022.2mb 41f 52f
3:12 6 10 mph 1022.2mb 41f 52f
3:06 6 9 mph 1022.3mb 41f 52f
3:00 5 9 mph 1022.2mb 41f 52f
2:54 6 8 mph 1022.2mb 41f 52f
2:48 6 8 mph 1022.2mb 41f 52f
2:42 3 7 mph 1022.3mb 41f 52f
2:36 5 10 mph 1022.3mb 41f 52f
2:30 5 8 mph 1022.4mb 41f 52f
2:24 6 9 mph 1022.4mb 41f 52f
2:18 6 11 mph 1022.4mb 41f 52f
2:12 7 11 mph 1022.3mb 41f 52f
2:06 7 10 mph 1022.2mb 41f 51f
2:00 7 10 mph - 41f 51f
1:54 7 10 mph - 41f 51f
1:48 6 9 mph 1022.4mb 41f 50f
1:42 6 10 mph 1022.4mb 41f 50f
1:36 7 9 mph 1022.4mb 42f 50f
1:30 7 8 mph 1022.4mb 42f 50f
1:24 6 7 mph 1022.5mb 42f 50f
1:18 3 6 mph 1022.5mb 43f 50f
1:12 3 6 mph 1022.7mb 44f 51f
1:06 3 6 mph 1022.7mb 45f 51f
1:00 5 8 mph 1022.7mb 46f 51f
12:54 5 7 mph 1022.7mb 46f 51f
12:48 5 7 mph 1022.8mb 47f 51f
12:42 5 8 mph 1022.9mb 47f 52f
12:36 5 9 mph 1022.9mb 47f 52f
12:30 6 13 mph 1022.8mb 47f 52f
12:24 8 14 mph 1022.8mb 47f 52f
12:18 8 13 mph 1022.8mb 47f 52f
12:12 7 13 mph 1022.7mb 47f 52f
12:06 7 9 mph 1022.7mb 47f 52f
12:00 7 10 mph 1022.8mb 47f 52f
Sáb 05/23 11:54 6 9 mph 1022.9mb 47f 52f
11:48 6 8 mph 1023mb 46f 52f
11:42 6 10 mph 1023.1mb 46f 53f
11:36 6 10 mph 1023.1mb 46f 53f
11:30 6 11 mph 1023.1mb 46f 53f
11:24 6 9 mph 1023mb 46f 53f
11:18 6 10 mph 1022.9mb 46f 53f
11:12 8 11 mph 1022.9mb 46f 53f
11:06 6 10 mph 1022.8mb 46f 53f
11:00 7 11 mph 1022.7mb 46f 53f
10:54 7 13 mph 1022.8mb 46f 53f
10:48 6 10 mph 1022.8mb 46f 53f
10:42 7 8 mph 1022.8mb 46f 53f
10:36 6 8 mph 1022.8mb 46f 52f
10:30 3 6 mph 1022.8mb 46f 51f
10:24 3 6 mph 1022.8mb 45f 51f
10:18 3 6 mph 1022.8mb 45f 51f
10:12 5 8 mph 1022.8mb 45f 52f
10:06 6 7 mph 1022.9mb 45f 52f
10:00 6 7 mph 1022.9mb 45f 53f
9:54 5 8 mph 1023mb 45f 53f
9:48 5 7 mph 1023.1mb 45f 54f
9:42 6 8 mph 1023.1mb 45f 54f
9:36 6 9 mph 1023.1mb 45f 54f
9:30 6 8 mph 1023.1mb 45f 54f
9:24 6 8 mph 1023.1mb 45f 55f
9:18 5 8 mph 1023mb 45f 55f
9:12 6 9 mph 1022.9mb 45f 55f
9:06 6 7 mph 1022.9mb 45f 55f
9:00 6 7 mph 1022.9mb 45f 55f
8:54 6 7 mph 1022.9mb 45f 55f
8:48 5 7 mph 1022.8mb 44f 55f
8:42 5 6 mph 1022.9mb 44f 56f
8:36 6 7 mph 1022.8mb 44f 56f
8:30 6 8 mph 1022.8mb 44f 56f
8:24 5 6 mph 1022.8mb 44f 56f
8:18 6
mph
1022.8mb 44f 56f
8:12 5 6 mph 1022.8mb 44f 57f
8:06 5
mph
1022.9mb 44f 57f
8:00 3
mph
1022.8mb 44f 58f
7:54 3
mph
1022.8mb 43f 59f
7:48 3 6 mph 1022.8mb 43f 60f
7:42 3 6 mph 1022.8mb 43f 60f
7:36 5 8 mph 1022.8mb 43f 61f
7:30 7 13 mph 1022.8mb 43f 61f
7:24 7 15 mph 1022.8mb 43f 62f
7:18 11 15 mph 1022.8mb 43f 62f
7:12 9 15 mph 1022.9mb 43f 62f
7:06 7 11 mph 1022.9mb 43f 62f
7:00 7 11 mph 1022.9mb 43f 62f
6:54 9 14 mph 1022.8mb 43f 62f
6:48 9 16 mph 1022.8mb 43f 62f
6:42 10 17 mph 1022.7mb 43f 62f
6:36 10 14 mph 1022.7mb 43f 62f
6:30 10 18 mph 1022.7mb 43f 62f
6:24 13 18 mph 1022.6mb 43f 62f
6:18 8 14 mph 1022.6mb 43f 62f
6:12 9 14 mph 1022.6mb 43f 62f
6:06 9 15 mph 1022.6mb 43f 62f
6:00 10 17 mph 1022.6mb 43f 62f
5:54 7 16 mph 1022.5mb 43f 62f
5:48 14 18 mph 1022.5mb 42f 61f
5:42 11 20 mph 1022.5mb 42f 62f
5:36 11 18 mph 1022.6mb 42f 62f
5:30 14 18 mph 1022.6mb 42f 61f
5:24 10 21 mph 1022.7mb 42f 62f
5:18 14 18 mph 1022.7mb 42f 61f
5:12 11 20 mph 1022.7mb 42f 62f
5:06 17 25 mph 1022.7mb 42f 61f
5:00 11 22 mph 1022.7mb 42f 61f
4:54 13 20 mph 1022.7mb 42f 61f
4:48 9 17 mph 1022.8mb 42f 61f
4:42 10 25 mph 1022.9mb 42f 62f
4:36 15 24 mph 1022.9mb 42f 60f
4:30 15 24 mph 1023mb 42f 61f
4:24 18 25 mph 1022.8mb 42f 60f
4:18 16 28 mph 1023mb 42f 60f
4:12 17 22 mph 1022.9mb 42f 60f
4:06 16 28 mph 1023mb 42f 60f
4:00 18 24 mph 1023.1mb 42f 60f
3:54 15 25 mph 1023.2mb 42f 60f
3:48 18 25 mph 1023.2mb 42f 60f
3:42 13 32 mph 1023.2mb 42f 60f
3:36 20 29 mph 1022.9mb 42f 59f
3:30 21 28 mph 1023mb 42f 59f
3:24 13 24 mph 1023.3mb 42f 60f
3:18 10 22 mph 1023.2mb 42f 59f
3:12 13 21 mph 1023.4mb 42f 60f
3:06 14 21 mph 1023.5mb 42f 60f
3:00 14 23 mph 1023.5mb 42f 59f
2:54 20 24 mph 1023.4mb 42f 58f
2:48 13 28 mph 1023.6mb 42f 59f
2:42 17 24 mph 1023.5mb 42f 58f
2:36 14 24 mph 1023.6mb 42f 58f
2:30 15 23 mph 1023.6mb 42f 58f
2:24 15 24 mph 1023.5mb 42f 58f
2:18 16 28 mph 1023.6mb 42f 58f
2:12 9 22 mph 1023.6mb 42f 58f
2:06 14 23 mph 1023.6mb 42f 58f
2:00 17 26 mph 1023.5mb 42f 56f
1:54 15 24 mph 1023.6mb 42f 57f
1:48 11 23 mph 1023.6mb 42f 57f
1:42 13 29 mph 1023.5mb 43f 57f
1:36 17 23 mph 1023.6mb 43f 56f
1:30 13 22 mph 1023.8mb 43f 56f
1:24 13 20 mph 1023.9mb 43f 56f
1:18 16 25 mph 1023.9mb 44f 56f
1:12 15 24 mph 1023.9mb 44f 55f
1:06 14 20 mph 1023.9mb 44f 55f
1:00 16 24 mph 1024mb 45f 54f
12:54 18 24 mph 1024mb 45f 54f
12:48 17 23 mph 1024mb 45f 54f
12:42 18 28 mph 1023.8mb 45f 54f
12:36 15 24 mph 1023.7mb 45f 55f
12:30 21 29 mph 1023.7mb 45f 53f
12:24 20 28 mph 1023.7mb 45f 54f
12:18 20 26 mph 1023.5mb 45f 53f
12:12 10 18 mph 1023.6mb 45f 54f
12:06 16 25 mph 1023.7mb 45f 53f
12:00 16 28 mph 1023.7mb 45f 53f
11:54 14 21 mph 1023.7mb 45f 53f
11:48 14 21 mph 1023.8mb 45f 53f
11:42 15 20 mph 1023.7mb 45f 53f
11:36 11 20 mph 1023.7mb 45f 52f
11:30 8 16 mph 1023.7mb 45f 53f
11:24 10 21 mph 1023.8mb 45f 52f
11:18 15 18 mph 1023.7mb 44f 52f
11:12 11 23 mph 1023.9mb 44f 52f
11:06 14 23 mph 1023.9mb 44f 52f
11:00 10 20 mph 1023.7mb 44f 52f
10:54 15 24 mph 1023.8mb 44f 51f
10:48 17 24 mph 1023.7mb 44f 51f
10:42 13 26 mph 1023.8mb 44f 51f
10:36 17 29 mph 1023.7mb 44f 50f
10:30 11 20 mph 1023.8mb 44f 50f
10:24 16 24 mph 1023.8mb 44f 50f
10:18 13 21 mph 1023.7mb 44f 50f
10:12 18 29 mph 1023.6mb 44f 49f
10:06 15 25 mph 1023.6mb 44f 49f
10:00 13 22 mph 1023.6mb 44f 49f
9:54 16 21 mph 1023.6mb 44f 49f
9:48 15 21 mph 1023.6mb 44f 49f
9:42 17 23 mph 1023.7mb 44f 48f
9:36 15 26 mph 1023.7mb 44f 49f
9:30 16 23 mph 1023.6mb 44f 47f
9:24 16 25 mph 1023.6mb 44f 47f
9:18 14 25 mph 1023.6mb 44f 48f
9:12 20 23 mph 1023.6mb 44f 47f
9:06 11 20 mph 1023.6mb 44f 48f
9:00 13 20 mph 1023.7mb 44f 47f
8:54 17 24 mph 1023.7mb 44f 47f
8:48 11 21 mph 1023.6mb 44f 47f
8:42 15 22 mph 1023.6mb 44f 46f
8:36 15 21 mph 1023.5mb 44f 46f
8:30 14 24 mph 1023.6mb 44f 46f
8:24 14 21 mph 1023.6mb 44f 46f
8:18 7 14 mph 1023.6mb 44f 47f
8:12 8 20 mph 1023.5mb 44f 46f
8:06 10 17 mph 1023.4mb 44f 46f
8:00 6 17 mph 1023.3mb 44f 46f
7:54 8 16 mph 1023.2mb 44f 46f
7:48 10 15 mph 1023.1mb 44f 45f
7:42 9 14 mph 1023.1mb 44f 45f
7:36 8 14 mph 1023.2mb 44f 45f
7:30 10 16 mph 1023.1mb 44f 44f
7:24 6 14 mph 1023.1mb 44f 44f
7:18 9 14 mph 1023.1mb 44f 44f
7:12 8 11 mph 1023mb 44f 44f
7:06 7 11 mph 1023mb 44f 44f
7:00 7 11 mph 1022.9mb 44f 44f
6:54 7 11 mph 1022.8mb 44f 43f
6:48 8 13 mph 1022.8mb 44f 43f
6:42 7 13 mph 1022.7mb 43f 43f
6:36 6 9 mph 1022.6mb 43f 43f
6:30 7 11 mph 1022.5mb 43f 42f
6:24 6 10 mph 1022.4mb 43f 42f
6:18 6 10 mph 1022.3mb 43f 42f
6:12 8 9 mph 1022.2mb 43f 42f
6:06 7 11 mph 1022.1mb 43f 42f
6:00 6 9 mph 1022mb 43f 42f
5:54 3 7 mph 1021.9mb 43f 41f
5:48 3 6 mph 1021.8mb 43f 41f
5:42 6 8 mph 1021.7mb 43f 40f
5:36 6 8 mph 1021.6mb 43f 40f
5:30 6 9 mph 1021.5mb 43f 40f
5:24 5 9 mph 1021.3mb 43f 41f
5:18 6 9 mph 1021.2mb 43f 40f
5:12 5 6 mph 1021.1mb 43f 40f
5:06 5 7 mph 1021.1mb 43f 40f
5:00 5 7 mph 1021mb 43f 40f
4:54 6 8 mph 1020.9mb 43f 40f
4:48 5 6 mph 1020.9mb 43f 40f
4:42 3 7 mph 1020.8mb 43f 40f
4:36 6 8 mph 1020.7mb 43f 41f
4:30 8 10 mph 1020.6mb 43f 41f
4:24 7 9 mph 1020.6mb 43f 41f
4:18 7 13 mph 1020.5mb 43f 42f
4:12 11 16 mph 1020.5mb 43f 42f
4:06 10 16 mph 1020.4mb 43f 42f
4:00 10 15 mph 1020.4mb 43f 42f
3:54 13 20 mph 1020.3mb 43f 43f
3:48 14 18 mph 1020.1mb 43f 43f
3:42 14 23 mph 1020.1mb 43f 44f
3:36 15 20 mph 1020mb 43f 44f
3:30 10 18 mph 1019.9mb 43f 44f
3:24 10 17 mph 1019.7mb 43f 45f
3:18 11 15 mph 1019.6mb 43f 45f
3:12 11 17 mph 1019.5mb 43f 45f
3:06 11 18 mph 1019.4mb 43f 46f
3:00 13 21 mph 1019.3mb 43f 46f
2:54 10 16 mph 1019.2mb 43f 47f
2:48 10 16 mph - 43f 47f
2:42 7 10 mph - 43f 47f
2:36 8 13 mph - 43f 47f
2:30 11 14 mph 1018.6mb 43f 48f
2:24 10 16 mph 1018.5mb 43f 48f
2:18 9 15 mph 1018.3mb 43f 49f
2:12 11 16 mph 1018.2mb 43f 49f
2:06 10 21 mph 1018.1mb 43f 49f